createdAt,value
2018-09-08T00:00:27.439Z,16.90
2018-09-08T00:02:55.492Z,16.90
2018-09-08T00:05:23.594Z,16.90
2018-09-08T00:07:51.663Z,17.00
2018-09-08T00:10:19.747Z,17.00
2018-09-08T00:12:47.833Z,17.00
2018-09-08T00:15:21.329Z,17.00
2018-09-08T00:17:54.725Z,17.00
2018-09-08T00:20:28.150Z,16.90
2018-09-08T00:23:01.688Z,16.90
2018-09-08T00:25:35.404Z,16.90
2018-09-08T00:28:09.082Z,16.90
2018-09-08T00:30:37.185Z,16.90
2018-09-08T00:33:05.252Z,16.90
2018-09-08T00:35:33.341Z,16.80
2018-09-08T00:38:01.407Z,16.90
2018-09-08T00:40:29.568Z,16.90
2018-09-08T00:42:57.596Z,16.90
2018-09-08T00:45:25.633Z,16.90
2018-09-08T00:47:53.700Z,16.90
2018-09-08T00:50:21.761Z,16.80
2018-09-08T00:52:49.916Z,16.80
2018-09-08T00:55:17.952Z,16.80
2018-09-08T00:57:46.016Z,16.80
2018-09-08T01:00:14.053Z,16.80
2018-09-08T01:02:42.136Z,16.80
2018-09-08T01:05:10.245Z,16.70
2018-09-08T01:07:38.438Z,16.70
2018-09-08T01:10:06.551Z,16.80
2018-09-08T01:12:34.677Z,16.80
2018-09-08T01:15:02.832Z,16.80
2018-09-08T01:17:30.899Z,16.80
2018-09-08T01:19:58.990Z,16.80
2018-09-08T01:22:27.103Z,16.70
2018-09-08T01:24:55.164Z,16.70
2018-09-08T01:27:23.294Z,16.70
2018-09-08T01:29:51.364Z,16.70
2018-09-08T01:32:19.463Z,16.60
2018-09-08T01:34:47.545Z,16.60
2018-09-08T01:37:15.632Z,16.70
2018-09-08T01:39:43.744Z,16.70
2018-09-08T01:42:11.801Z,16.70
2018-09-08T01:44:39.876Z,16.70
2018-09-08T01:47:08.551Z,16.60
2018-09-08T01:49:36.634Z,16.60
2018-09-08T01:52:04.681Z,16.60
2018-09-08T01:54:32.729Z,16.60
2018-09-08T01:57:00.894Z,16.60
2018-09-08T01:59:29.198Z,16.60
2018-09-08T02:01:57.248Z,16.60
2018-09-08T02:04:26.293Z,16.60
2018-09-08T02:06:54.353Z,16.60
2018-09-08T02:09:22.412Z,16.50
2018-09-08T02:11:50.521Z,16.50
2018-09-08T02:14:18.582Z,16.50
2018-09-08T02:16:46.675Z,16.50
2018-09-08T02:19:14.799Z,16.50
2018-09-08T02:21:42.896Z,16.60
2018-09-08T02:24:10.975Z,16.60
2018-09-08T02:26:39.068Z,16.60
2018-09-08T02:29:07.163Z,16.60
2018-09-08T02:31:35.269Z,16.60
2018-09-08T02:34:04.200Z,16.50
2018-09-08T02:36:32.291Z,16.50
2018-09-08T02:39:00.342Z,16.60
2018-09-08T02:41:28.367Z,16.60
2018-09-08T02:43:56.426Z,16.50
2018-09-08T02:46:24.477Z,16.50
2018-09-08T02:48:52.505Z,16.50
2018-09-08T02:51:19.263Z,16.40
2018-09-08T02:53:45.997Z,16.50
2018-09-08T02:56:12.774Z,16.50
2018-09-08T02:58:39.528Z,16.40
2018-09-08T03:01:06.359Z,16.40
2018-09-08T03:03:33.110Z,16.40
2018-09-08T03:05:59.867Z,16.40
2018-09-08T03:08:26.640Z,16.40
2018-09-08T03:10:53.400Z,16.40
2018-09-08T03:13:20.185Z,16.30
2018-09-08T03:15:47.803Z,16.30
2018-09-08T03:18:14.555Z,16.30
2018-09-08T03:20:41.305Z,16.30
2018-09-08T03:23:08.031Z,16.20
2018-09-08T03:25:34.774Z,16.20
2018-09-08T03:28:01.533Z,16.20
2018-09-08T03:30:28.352Z,16.20
2018-09-08T03:32:55.106Z,16.20
2018-09-08T03:35:21.876Z,16.20
2018-09-08T03:37:48.660Z,16.30
2018-09-08T03:40:15.396Z,16.20
2018-09-08T03:42:42.168Z,16.20
2018-09-08T03:45:08.943Z,16.20
2018-09-08T03:47:35.728Z,16.20
2018-09-08T03:50:02.481Z,16.20
2018-09-08T03:52:29.246Z,16.20
2018-09-08T03:54:55.998Z,16.10
2018-09-08T03:57:22.837Z,16.10
2018-09-08T03:59:49.614Z,16.10
2018-09-08T04:02:16.385Z,16.20
2018-09-08T04:04:44.463Z,16.20
2018-09-08T04:07:12.570Z,16.20
2018-09-08T04:09:40.738Z,16.10
2018-09-08T04:12:08.828Z,16.10
2018-09-08T04:14:36.905Z,16.10
2018-09-08T04:17:05.062Z,16.10
2018-09-08T04:19:33.186Z,16.10
2018-09-08T04:22:01.284Z,16.10
2018-09-08T04:24:29.339Z,16.00
2018-09-08T04:26:57.415Z,16.00
2018-09-08T04:29:25.562Z,16.00
2018-09-08T04:31:53.665Z,16.00
2018-09-08T04:34:21.763Z,16.00
2018-09-08T04:36:49.928Z,16.00
2018-09-08T04:39:18.025Z,15.90
2018-09-08T04:41:46.861Z,15.90
2018-09-08T04:44:14.896Z,15.90
2018-09-08T04:46:42.997Z,15.90
2018-09-08T04:49:11.141Z,15.90
2018-09-08T04:51:39.224Z,15.90
2018-09-08T04:54:07.328Z,15.90
2018-09-08T04:56:35.442Z,16.00
2018-09-08T04:59:03.601Z,16.00
2018-09-08T05:01:31.759Z,16.10
2018-09-08T05:03:59.846Z,16.10
2018-09-08T05:06:27.898Z,16.10
2018-09-08T05:08:56.040Z,16.00
2018-09-08T05:11:24.142Z,16.10
2018-09-08T05:13:52.169Z,16.10
2018-09-08T05:16:20.231Z,16.20
2018-09-08T05:18:48.258Z,16.20
2018-09-08T05:21:16.311Z,16.10
2018-09-08T05:23:44.405Z,16.20
2018-09-08T05:26:12.509Z,16.20
2018-09-08T05:28:40.648Z,16.20
2018-09-08T05:31:08.691Z,16.20
2018-09-08T05:33:36.757Z,16.20
2018-09-08T05:36:05.892Z,16.20
2018-09-08T05:38:33.998Z,16.30
2018-09-08T05:41:02.150Z,16.30
2018-09-08T05:43:30.355Z,16.30
2018-09-08T05:45:58.469Z,16.40
2018-09-08T05:48:26.643Z,16.40
2018-09-08T05:50:55.034Z,16.40
2018-09-08T05:53:23.221Z,16.50
2018-09-08T05:55:51.289Z,16.50
2018-09-08T05:58:19.382Z,16.60
2018-09-08T06:00:47.426Z,16.60
2018-09-08T06:03:15.498Z,16.70
2018-09-08T06:05:43.569Z,16.80
2018-09-08T06:08:11.674Z,16.90
2018-09-08T06:10:39.710Z,17.00
2018-09-08T06:13:07.862Z,17.00
2018-09-08T06:15:35.962Z,17.10
2018-09-08T06:18:04.145Z,17.20
2018-09-08T06:20:32.318Z,17.30
2018-09-08T06:23:00.371Z,17.30
2018-09-08T06:25:28.466Z,17.40
2018-09-08T06:27:56.948Z,17.50
2018-09-08T06:30:25.063Z,17.50
2018-09-08T06:32:53.161Z,17.60
2018-09-08T06:35:21.433Z,17.60
2018-09-08T06:37:49.393Z,17.80
2018-09-08T06:40:17.486Z,17.80
2018-09-08T06:42:45.560Z,17.80
2018-09-08T06:45:13.723Z,17.80
2018-09-08T06:47:41.788Z,17.90
2018-09-08T06:50:09.870Z,18.00
2018-09-08T06:52:37.940Z,18.10
2018-09-08T06:55:06.028Z,18.20
2018-09-08T06:57:34.084Z,18.20
2018-09-08T07:00:02.211Z,18.20
2018-09-08T07:02:30.292Z,18.30
2018-09-08T07:04:58.362Z,18.40
2018-09-08T07:07:26.521Z,18.40
2018-09-08T07:09:54.605Z,18.60
2018-09-08T07:12:22.663Z,18.50
2018-09-08T07:14:50.771Z,18.60
2018-09-08T07:17:18.873Z,18.80
2018-09-08T07:19:46.913Z,18.90
2018-09-08T07:22:15.010Z,19.00
2018-09-08T07:24:43.112Z,19.00
2018-09-08T07:27:11.149Z,19.10
2018-09-08T07:29:39.266Z,19.30
2018-09-08T07:32:07.361Z,19.70
2018-09-08T07:34:35.474Z,19.70
2018-09-08T07:37:03.578Z,19.80
2018-09-08T07:39:31.715Z,20.20
2018-09-08T07:41:59.793Z,20.50
2018-09-08T07:44:27.918Z,20.70
2018-09-08T07:46:56.392Z,20.70
2018-09-08T07:49:24.499Z,21.30
2018-09-08T07:51:52.622Z,21.50
2018-09-08T07:54:20.701Z,21.30
2018-09-08T07:56:48.766Z,21.40
2018-09-08T07:59:16.903Z,21.10
2018-09-08T08:01:46.672Z,21.20
2018-09-08T08:04:14.850Z,21.50
2018-09-08T08:06:43.152Z,21.70
2018-09-08T08:09:11.212Z,22.60
2018-09-08T08:11:40.655Z,23.60
2018-09-08T08:14:08.799Z,24.60
2018-09-08T08:16:37.505Z,25.10
2018-09-08T08:19:05.619Z,25.20
2018-09-08T08:21:33.696Z,25.90
2018-09-08T08:24:01.758Z,27.20
2018-09-08T08:26:29.870Z,28.10
2018-09-08T08:28:58.613Z,27.90
2018-09-08T08:31:26.715Z,28.00
2018-09-08T08:33:54.905Z,27.70
2018-09-08T08:36:23.001Z,28.90
2018-09-08T08:38:51.185Z,28.80
2018-09-08T08:41:19.257Z,28.60
2018-09-08T08:43:47.310Z,29.40
2018-09-08T08:46:15.396Z,29.30
2018-09-08T08:48:44.285Z,29.10
2018-09-08T08:51:23.608Z,28.10
2018-09-08T08:54:02.709Z,28.10
2018-09-08T08:56:30.801Z,28.20
2018-09-08T08:58:58.936Z,28.40
2018-09-08T09:01:27.053Z,29.20
2018-09-08T09:03:55.155Z,29.20
2018-09-08T09:06:23.212Z,28.50
2018-09-08T09:08:51.356Z,27.80
2018-09-08T09:11:19.458Z,27.60
2018-09-08T09:13:48.187Z,28.20
2018-09-08T09:16:16.233Z,29.00
2018-09-08T09:18:55.999Z,29.50
2018-09-08T09:21:34.711Z,29.80
2018-09-08T09:24:24.711Z,30.30
2018-09-08T09:26:52.479Z,31.00
2018-09-08T09:29:20.854Z,33.20
2018-09-08T09:31:49.064Z,33.20
2018-09-08T09:34:17.329Z,33.30
2018-09-08T09:36:45.478Z,34.10
2018-09-08T09:39:13.659Z,34.90
2018-09-08T09:41:42.327Z,33.40
2018-09-08T09:44:11.274Z,32.90
2018-09-08T09:46:39.428Z,33.00
2018-09-08T09:49:07.543Z,32.10
2018-09-08T09:51:35.629Z,32.70
2018-09-08T09:54:03.844Z,31.90
2018-09-08T09:56:32.033Z,31.70
2018-09-08T09:59:00.152Z,32.20
2018-09-08T10:01:33.600Z,32.20
2018-09-08T10:04:01.769Z,33.00
2018-09-08T10:06:29.920Z,32.50
2018-09-08T10:08:58.088Z,33.30
2018-09-08T10:11:26.226Z,33.60
2018-09-08T10:13:54.354Z,34.20
2018-09-08T10:16:22.474Z,34.00
2018-09-08T10:18:50.696Z,34.90
2018-09-08T10:21:18.898Z,35.50
2018-09-08T10:24:04.351Z,35.90
2018-09-08T10:26:15.293Z,35.00
2018-09-08T10:28:43.419Z,35.10
2018-09-08T10:31:11.494Z,35.10
2018-09-08T10:33:39.617Z,34.60
2018-09-08T10:36:07.768Z,34.80
2018-09-08T10:38:36.012Z,33.80
2018-09-08T10:41:04.196Z,33.30
2018-09-08T10:43:32.363Z,33.70
2018-09-08T10:46:00.486Z,33.20
2018-09-08T10:48:28.604Z,33.80
2018-09-08T10:50:57.247Z,33.50
2018-09-08T10:53:25.328Z,34.50
2018-09-08T10:55:53.594Z,33.30
2018-09-08T10:58:21.881Z,32.40
2018-09-08T11:00:50.071Z,32.70
2018-09-08T11:03:18.177Z,32.70
2018-09-08T11:05:46.289Z,33.00
2018-09-08T11:08:14.458Z,32.10
2018-09-08T11:10:42.599Z,31.80
2018-09-08T11:13:10.781Z,31.40
2018-09-08T11:15:39.084Z,30.90
2018-09-08T11:18:07.240Z,30.60
2018-09-08T11:20:35.474Z,29.90
2018-09-08T11:23:03.645Z,29.40
2018-09-08T11:25:31.705Z,29.20
2018-09-08T11:27:59.816Z,29.40
2018-09-08T11:30:27.953Z,29.70
2018-09-08T11:32:56.028Z,30.70
2018-09-08T11:35:24.252Z,31.80
2018-09-08T11:37:52.385Z,32.70
2018-09-08T11:40:20.502Z,33.20
2018-09-08T11:42:48.761Z,34.10
2018-09-08T11:45:16.934Z,35.10
2018-09-08T11:47:45.028Z,35.20
2018-09-08T11:50:13.176Z,34.80
2018-09-08T11:52:41.253Z,35.60
2018-09-08T11:55:09.424Z,35.80
2018-09-08T11:57:37.533Z,35.00
2018-09-08T12:00:06.251Z,35.10
2018-09-08T12:02:34.358Z,34.90
2018-09-08T12:05:02.462Z,34.60
2018-09-08T12:07:30.697Z,35.00
2018-09-08T12:09:58.818Z,35.80
2018-09-08T12:12:26.938Z,35.80
2018-09-08T12:14:55.064Z,35.70
2018-09-08T12:17:23.143Z,34.20
2018-09-08T12:19:51.214Z,34.10
2018-09-08T12:22:19.395Z,33.80
2018-09-08T12:24:47.438Z,33.20
2018-09-08T12:27:15.593Z,32.50
2018-09-08T12:29:43.767Z,32.10
2018-09-08T12:32:11.965Z,31.80
2018-09-08T12:34:40.119Z,31.00
2018-09-08T12:37:08.254Z,30.80
2018-09-08T12:39:36.347Z,31.90
2018-09-08T12:42:04.468Z,32.10
2018-09-08T12:44:32.550Z,32.30
2018-09-08T12:47:00.680Z,32.80
2018-09-08T12:49:28.922Z,32.60
2018-09-08T12:51:57.968Z,33.40
2018-09-08T12:54:26.080Z,34.00
2018-09-08T12:56:54.205Z,35.20
2018-09-08T12:59:22.394Z,35.20
2018-09-08T13:01:50.908Z,35.90
2018-09-08T13:04:19.747Z,36.80
2018-09-08T13:06:47.988Z,38.00
2018-09-08T13:09:16.174Z,38.60
2018-09-08T13:11:44.864Z,38.10
2018-09-08T13:14:13.046Z,37.00
2018-09-08T13:16:41.210Z,37.50
2018-09-08T13:19:09.323Z,36.80
2018-09-08T13:21:37.479Z,35.40
2018-09-08T13:24:05.619Z,35.30
2018-09-08T13:26:33.701Z,35.30
2018-09-08T13:29:01.910Z,35.60
2018-09-08T13:31:31.874Z,36.00
2018-09-08T13:33:59.986Z,36.60
2018-09-08T13:36:28.105Z,35.60
2018-09-08T13:38:56.307Z,35.60
2018-09-08T13:41:24.447Z,35.50
2018-09-08T13:43:52.562Z,35.80
2018-09-08T13:46:20.752Z,35.10
2018-09-08T13:48:48.884Z,33.40
2018-09-08T13:51:17.004Z,31.90
2018-09-08T13:53:45.409Z,30.40
2018-09-08T13:56:13.553Z,29.60
2018-09-08T13:58:41.627Z,29.30
2018-09-08T14:01:09.728Z,30.70
2018-09-08T14:03:37.838Z,32.20
2018-09-08T14:06:05.953Z,32.80
2018-09-08T14:08:34.057Z,33.80
2018-09-08T14:11:02.284Z,34.50
2018-09-08T14:13:30.401Z,34.60
2018-09-08T14:15:58.516Z,34.70
2018-09-08T14:18:26.719Z,34.70
2018-09-08T14:20:54.913Z,33.60
2018-09-08T14:23:23.086Z,32.30
2018-09-08T14:25:51.229Z,30.70
2018-09-08T14:28:19.537Z,29.80
2018-09-08T14:30:47.771Z,29.10
2018-09-08T14:33:15.871Z,28.50
2018-09-08T14:35:43.920Z,27.90
2018-09-08T14:38:12.037Z,27.70
2018-09-08T14:40:40.174Z,27.50
2018-09-08T14:43:08.233Z,27.20
2018-09-08T14:45:36.366Z,26.90
2018-09-08T14:48:04.729Z,26.70
2018-09-08T14:50:33.230Z,26.40
2018-09-08T14:53:01.525Z,26.20
2018-09-08T14:55:29.751Z,26.10
2018-09-08T14:57:57.932Z,26.10
2018-09-08T15:00:26.081Z,26.20
2018-09-08T15:02:54.308Z,26.20
2018-09-08T15:05:22.418Z,26.40
2018-09-08T15:07:50.656Z,26.50
2018-09-08T15:10:18.848Z,26.50
2018-09-08T15:12:46.931Z,26.50
2018-09-08T15:15:15.015Z,26.30
2018-09-08T15:17:43.076Z,26.20
2018-09-08T15:20:11.349Z,26.10
2018-09-08T15:22:39.617Z,26.00
2018-09-08T15:25:07.803Z,26.00
2018-09-08T15:27:36.249Z,26.00
2018-09-08T15:30:04.398Z,26.00
2018-09-08T15:32:32.484Z,26.00
2018-09-08T15:35:00.760Z,25.90
2018-09-08T15:37:28.940Z,25.90
2018-09-08T15:39:57.696Z,25.80
2018-09-08T15:42:25.777Z,25.80
2018-09-08T15:44:53.865Z,25.60
2018-09-08T15:47:22.947Z,25.50
2018-09-08T15:49:51.100Z,25.30
2018-09-08T15:52:20.052Z,25.20
2018-09-08T15:54:48.135Z,25.00
2018-09-08T15:57:16.221Z,24.90
2018-09-08T15:59:44.321Z,24.70
2018-09-08T16:02:12.459Z,24.60
2018-09-08T16:04:40.569Z,24.40
2018-09-08T16:07:09.482Z,24.30
2018-09-08T16:09:38.786Z,24.10
2018-09-08T16:12:10.609Z,24.00
2018-09-08T16:14:40.674Z,23.80
2018-09-08T16:17:14.268Z,23.60
2018-09-08T16:19:47.023Z,23.60
2018-09-08T16:22:20.336Z,23.30
2018-09-08T16:24:54.617Z,23.30
2018-09-08T16:27:46.630Z,23.30
2018-09-08T16:30:17.809Z,23.10
2018-09-08T16:32:52.481Z,23.10
2018-09-08T16:35:24.833Z,23.00
2018-09-08T16:37:59.726Z,22.90
2018-09-08T16:40:31.262Z,22.80
2018-09-08T16:43:04.278Z,22.70
2018-09-08T16:45:37.175Z,22.60
2018-09-08T16:48:08.454Z,22.50
2018-09-08T16:50:39.615Z,22.40
2018-09-08T16:53:12.946Z,22.30
2018-09-08T16:55:45.966Z,22.20
2018-09-08T16:58:19.811Z,22.10
2018-09-08T17:00:56.494Z,22.00
2018-09-08T17:03:49.781Z,21.90
2018-09-08T17:06:27.844Z,21.80
2018-09-08T17:10:43.918Z,21.80
2018-09-08T17:13:14.473Z,21.70
2018-09-08T17:15:51.364Z,21.60
2018-09-08T17:18:26.989Z,21.60
2018-09-08T17:21:11.064Z,21.50
2018-09-08T17:23:56.709Z,21.40
2018-09-08T17:26:40.262Z,21.30
2018-09-08T17:29:15.588Z,21.20
2018-09-08T17:31:59.999Z,21.20
2018-09-08T17:37:59.131Z,21.10
2018-09-08T17:40:31.799Z,20.90
2018-09-08T17:43:05.297Z,20.80
2018-09-08T17:45:46.394Z,20.70
2018-09-08T17:48:21.717Z,20.60
2018-09-08T17:50:56.184Z,20.50
2018-09-08T17:53:47.249Z,20.40
2018-09-08T17:56:27.185Z,20.30
2018-09-08T17:58:59.002Z,20.20
2018-09-08T18:01:29.701Z,20.00
2018-09-08T18:04:00.487Z,19.90
2018-09-08T18:06:30.545Z,19.80
2018-09-08T18:09:00.195Z,19.70
2018-09-08T18:11:37.137Z,19.60
2018-09-08T18:14:06.130Z,19.60
2018-09-08T18:16:35.838Z,19.50
2018-09-08T18:19:04.627Z,19.50
2018-09-08T18:24:23.712Z,19.40
2018-09-08T18:26:56.522Z,19.20
2018-09-08T18:29:24.755Z,19.20
2018-09-08T18:31:55.709Z,19.10
2018-09-08T18:34:24.112Z,19.10
2018-09-08T18:36:55.577Z,19.00
2018-09-08T18:39:37.588Z,19.00
2018-09-08T18:42:14.816Z,18.90
2018-09-08T18:44:45.359Z,18.80
2018-09-08T18:47:14.952Z,18.70
2018-09-08T18:49:45.686Z,18.70
2018-09-08T18:52:28.303Z,18.60
2018-09-08T18:54:58.769Z,18.60
2018-09-08T18:57:29.329Z,18.60
2018-09-08T18:59:57.632Z,18.50
2018-09-08T19:02:39.250Z,18.50
2018-09-08T19:05:08.309Z,18.40
2018-09-08T19:07:37.702Z,18.40
2018-09-08T19:10:08.605Z,18.40
2018-09-08T19:12:38.680Z,18.30
2018-09-08T19:15:17.690Z,18.30
2018-09-08T19:17:58.261Z,18.30
2018-09-08T19:20:38.445Z,18.30
2018-09-08T19:23:09.909Z,18.30
2018-09-08T19:29:19.303Z,18.30
2018-09-08T19:31:49.743Z,18.30
2018-09-08T19:34:20.541Z,18.30
2018-09-08T19:37:00.222Z,18.30
2018-09-08T19:39:43.097Z,18.20
2018-09-08T19:42:11.441Z,18.20
2018-09-08T19:45:23.538Z,18.20
2018-09-08T19:47:57.005Z,18.20
2018-09-08T19:50:26.943Z,18.20
2018-09-08T19:55:41.295Z,18.10
2018-09-08T19:58:16.468Z,18.10
2018-09-08T20:00:45.222Z,18.10
2018-09-08T20:03:14.820Z,18.10
2018-09-08T20:05:43.269Z,18.10
2018-09-08T20:08:20.636Z,18.10
2018-09-08T20:10:50.617Z,18.00
2018-09-08T20:13:23.504Z,18.00
2018-09-08T20:15:53.118Z,18.00
2018-09-08T20:18:24.733Z,18.00
2018-09-08T20:20:53.261Z,17.90
2018-09-08T20:23:23.381Z,17.90
2018-09-08T20:25:54.919Z,17.80
2018-09-08T20:28:31.800Z,17.90
2018-09-08T20:31:06.789Z,17.80
2018-09-08T20:33:37.851Z,17.80
2018-09-08T20:36:07.164Z,17.80
2018-09-08T20:38:46.107Z,17.80
2018-09-08T20:41:20.085Z,17.80
2018-09-08T20:43:48.312Z,17.70
2018-09-08T20:46:16.882Z,17.60
2018-09-08T20:48:48.416Z,17.50
2018-09-08T20:51:19.542Z,17.50
2018-09-08T20:53:53.028Z,17.50
2018-09-08T20:56:23.721Z,17.50
2018-09-08T20:58:55.128Z,17.50
2018-09-08T21:01:27.730Z,17.40
2018-09-08T21:03:58.589Z,17.40
2018-09-08T21:06:37.160Z,17.30
2018-09-08T21:09:08.408Z,17.30
2018-09-08T21:11:36.749Z,17.10
2018-09-08T21:14:07.969Z,17.10
2018-09-08T21:16:38.391Z,17.10
2018-09-08T21:19:07.589Z,17.10
2018-09-08T21:21:38.568Z,17.00
2018-09-08T21:24:17.283Z,17.00
2018-09-08T21:26:50.190Z,16.90
2018-09-08T21:29:19.368Z,16.80
2018-09-08T21:31:47.526Z,16.80
2018-09-08T21:34:15.674Z,16.80
2018-09-08T21:36:43.836Z,16.70
2018-09-08T21:39:12.951Z,16.70
2018-09-08T21:41:42.087Z,16.70
2018-09-08T21:44:10.939Z,16.70
2018-09-08T21:46:40.351Z,16.60
2018-09-08T21:51:53.789Z,16.60
2018-09-08T21:54:25.722Z,16.60
2018-09-08T21:57:01.447Z,16.50
2018-09-08T22:02:35.275Z,16.50
2018-09-08T22:05:10.565Z,16.40
2018-09-08T22:07:41.915Z,16.40
2018-09-08T22:10:17.622Z,16.40
2018-09-08T22:12:49.881Z,16.40
2018-09-08T22:15:23.749Z,16.30
2018-09-08T22:17:58.232Z,16.30
2018-09-08T22:20:29.197Z,16.20
2018-09-08T22:23:00.958Z,16.10
2018-09-08T22:25:30.078Z,16.20
2018-09-08T22:28:03.864Z,16.20
2018-09-08T22:30:36.695Z,16.10
2018-09-08T22:33:09.043Z,16.10
2018-09-08T22:35:39.446Z,16.10
2018-09-08T22:38:09.172Z,16.10
2018-09-08T22:40:39.809Z,16.10
2018-09-08T22:43:10.656Z,16.00
2018-09-08T22:45:42.913Z,16.00
2018-09-08T22:48:12.655Z,16.00
2018-09-08T22:50:40.722Z,15.90
2018-09-08T22:53:09.669Z,15.90
2018-09-08T22:55:38.701Z,15.90
2018-09-08T22:58:08.003Z,15.80
2018-09-08T23:00:37.305Z,15.80
2018-09-08T23:03:06.440Z,15.80
2018-09-08T23:05:38.804Z,15.80
2018-09-08T23:08:07.226Z,15.80
2018-09-08T23:10:35.983Z,15.70
2018-09-08T23:13:06.966Z,15.70
2018-09-08T23:15:37.078Z,15.70
2018-09-08T23:18:06.357Z,15.70
2018-09-08T23:20:35.057Z,15.60
2018-09-08T23:23:04.805Z,15.60
2018-09-08T23:25:32.968Z,15.60
2018-09-08T23:28:01.754Z,15.60
2018-09-08T23:30:30.495Z,15.60
2018-09-08T23:32:58.608Z,15.60
2018-09-08T23:35:27.703Z,15.60
2018-09-08T23:37:55.790Z,15.50
2018-09-08T23:40:24.737Z,15.50
2018-09-08T23:42:52.836Z,15.50
2018-09-08T23:45:20.940Z,15.50
2018-09-08T23:47:49.704Z,15.50
2018-09-08T23:50:17.877Z,15.50
2018-09-08T23:52:45.985Z,15.50
2018-09-08T23:55:14.899Z,15.40
2018-09-08T23:57:42.957Z,15.40
